createdAt,value
2022-08-09T00:04:15.400Z,25.99
2022-08-09T00:09:15.058Z,26.01
2022-08-09T00:14:36.431Z,26.11
2022-08-09T00:19:29.538Z,25.97
2022-08-09T00:24:36.826Z,25.95
2022-08-09T00:30:24.864Z,25.97
2022-08-09T00:34:51.975Z,25.95
2022-08-09T00:40:13.518Z,25.95
2022-08-09T00:45:15.691Z,25.88
2022-08-09T00:50:14.836Z,25.74
2022-08-09T00:56:03.940Z,25.71
2022-08-09T01:00:27.496Z,25.64
2022-08-09T01:05:51.125Z,25.57
2022-08-09T01:10:42.114Z,25.53
2022-08-09T01:15:52.193Z,25.47
2022-08-09T01:20:56.588Z,25.42
2022-08-09T01:26:03.814Z,25.39
2022-08-09T01:31:11.009Z,25.39
2022-08-09T01:36:18.291Z,25.32
2022-08-09T01:41:26.015Z,25.27
2022-08-09T01:46:32.747Z,25.22
2022-08-09T01:51:42.822Z,25.15
2022-08-09T01:56:51.421Z,25.15
2022-08-09T02:01:59.327Z,25.15
2022-08-09T02:07:02.651Z,25.09
2022-08-09T02:12:08.679Z,25.10
2022-08-09T02:17:55.021Z,25.06
2022-08-09T02:22:27.473Z,25.01
2022-08-09T02:27:57.343Z,25.00
2022-08-09T02:32:37.527Z,24.95
2022-08-09T02:37:45.571Z,24.90
2022-08-09T02:42:52.728Z,24.85
2022-08-09T02:47:59.926Z,24.78
2022-08-09T02:53:07.182Z,24.77
2022-08-09T02:58:32.830Z,24.73
2022-08-09T03:03:37.058Z,24.71
2022-08-09T03:08:28.902Z,24.62
2022-08-09T03:13:43.377Z,24.64
2022-08-09T03:18:43.409Z,24.62
2022-08-09T03:24:01.589Z,24.65
2022-08-09T03:28:58.379Z,24.61
2022-08-09T03:34:05.571Z,24.55
2022-08-09T03:39:12.809Z,24.48
2022-08-09T03:44:20.035Z,24.46
2022-08-09T03:49:27.211Z,24.41
2022-08-09T03:54:34.843Z,24.35
2022-08-09T03:59:53.884Z,24.35
2022-08-09T04:04:48.870Z,24.35
2022-08-09T04:09:56.061Z,24.35
2022-08-09T04:15:11.377Z,24.34
2022-08-09T04:20:10.452Z,24.34
2022-08-09T04:25:17.696Z,24.34
2022-08-09T04:30:26.136Z,24.31
2022-08-09T04:35:32.851Z,24.30
2022-08-09T04:40:39.368Z,24.26
2022-08-09T04:45:53.903Z,24.24
2022-08-09T04:50:53.825Z,24.21
2022-08-09T04:56:01.024Z,24.18
2022-08-09T05:01:16.407Z,24.16
2022-08-09T05:06:27.261Z,24.16
2022-08-09T05:11:22.662Z,24.18
2022-08-09T05:16:31.610Z,24.19
2022-08-09T05:21:47.159Z,24.23
2022-08-09T05:26:46.182Z,24.20
2022-08-09T05:31:58.481Z,24.23
2022-08-09T05:36:58.933Z,24.25
2022-08-09T05:42:06.159Z,24.24
2022-08-09T05:47:13.393Z,24.27
2022-08-09T05:52:20.684Z,24.27
2022-08-09T05:57:50.705Z,24.32
2022-08-09T06:02:35.636Z,24.32
2022-08-09T06:07:42.389Z,24.30
2022-08-09T06:12:50.469Z,24.36
2022-08-09T06:17:56.831Z,24.40
2022-08-09T06:23:04.078Z,24.41
2022-08-09T06:28:11.327Z,24.41
2022-08-09T06:33:39.553Z,24.43
2022-08-09T06:38:32.263Z,24.36
2022-08-09T06:43:34.397Z,24.40
2022-08-09T06:48:42.616Z,24.40
2022-08-09T06:53:49.878Z,24.38
2022-08-09T07:00:49.821Z,24.42
2022-08-09T07:04:03.871Z,24.36
2022-08-09T07:09:53.770Z,24.29
2022-08-09T07:14:17.143Z,24.19
2022-08-09T07:19:24.467Z,24.14
2022-08-09T07:24:40.215Z,24.19
2022-08-09T07:29:42.942Z,24.26
2022-08-09T07:34:46.106Z,24.19
2022-08-09T07:39:53.294Z,24.24
2022-08-09T07:45:02.590Z,24.27
2022-08-09T07:50:09.467Z,24.34
2022-08-09T07:55:14.807Z,24.40
2022-08-09T08:00:35.796Z,24.41
2022-08-09T08:05:29.154Z,24.40
2022-08-09T08:10:36.345Z,24.41
2022-08-09T08:15:43.645Z,24.41
2022-08-09T08:20:50.820Z,24.46
2022-08-09T08:26:06.388Z,24.57
2022-08-09T08:31:13.915Z,24.64
2022-08-09T08:36:12.471Z,24.73
2022-08-09T08:41:19.661Z,24.83
2022-08-09T08:46:32.884Z,24.78
2022-08-09T08:51:38.782Z,24.86
2022-08-09T08:56:41.350Z,24.83
2022-08-09T09:01:52.648Z,24.78
2022-08-09T09:06:55.976Z,24.82
2022-08-09T09:12:03.205Z,24.88
2022-08-09T09:17:11.287Z,24.91
2022-08-09T09:22:28.595Z,24.97
2022-08-09T09:28:06.959Z,25.04
2022-08-09T09:32:38.492Z,25.09
2022-08-09T09:37:41.395Z,25.16
2022-08-09T09:42:48.945Z,25.17
2022-08-09T09:47:58.687Z,25.23
2022-08-09T09:53:03.667Z,25.25
2022-08-09T09:58:18.251Z,25.32
2022-08-09T10:03:18.013Z,25.38
2022-08-09T10:08:27.604Z,25.42
2022-08-09T10:13:43.039Z,25.49
2022-08-09T10:18:39.671Z,25.48
2022-08-09T10:23:46.886Z,25.52
2022-08-09T10:29:37.513Z,25.57
2022-08-09T10:34:09.063Z,25.63
2022-08-09T10:39:15.960Z,25.68
2022-08-09T10:44:15.737Z,25.73
2022-08-09T10:49:22.926Z,25.75
2022-08-09T10:54:30.104Z,25.79
2022-08-09T10:59:55.556Z,25.86
2022-08-09T11:04:56.154Z,25.88
2022-08-09T11:09:52.417Z,25.92
2022-08-09T11:14:58.951Z,26.04
2022-08-09T11:20:12.027Z,26.15
2022-08-09T11:25:14.583Z,26.22
2022-08-09T11:30:32.464Z,26.25
2022-08-09T11:35:35.260Z,26.26
2022-08-09T11:40:34.965Z,26.30
2022-08-09T11:45:43.474Z,26.38
2022-08-09T11:50:54.886Z,26.43
2022-08-09T11:56:02.990Z,26.48
2022-08-09T12:01:08.682Z,26.49
2022-08-09T12:06:11.018Z,26.52
2022-08-09T12:11:18.223Z,26.56
2022-08-09T12:16:37.709Z,26.56
2022-08-09T12:21:38.646Z,26.60
2022-08-09T12:26:39.819Z,26.57
2022-08-09T12:32:02.024Z,26.60
2022-08-09T12:36:58.927Z,26.60
2022-08-09T12:42:01.476Z,26.66
2022-08-09T12:47:08.697Z,26.72
2022-08-09T12:52:15.926Z,26.80
2022-08-09T12:57:23.187Z,26.81
2022-08-09T13:02:30.586Z,26.84
2022-08-09T13:07:51.079Z,26.89
2022-08-09T13:13:10.039Z,26.96
2022-08-09T13:18:05.501Z,27.01
2022-08-09T13:23:02.034Z,27.05
2022-08-09T13:28:06.754Z,27.06
2022-08-09T13:33:17.156Z,27.09
2022-08-09T13:38:55.779Z,27.08
2022-08-09T13:43:35.801Z,27.10
2022-08-09T13:48:35.835Z,27.09
2022-08-09T13:53:44.641Z,27.11
2022-08-09T13:58:50.275Z,27.13
2022-08-09T14:04:01.783Z,27.11
2022-08-09T14:09:04.700Z,27.14
2022-08-09T14:14:24.720Z,27.11
2022-08-09T14:19:20.563Z,27.11
2022-08-09T14:24:32.546Z,27.13
2022-08-09T14:30:36.453Z,27.14
2022-08-09T14:34:41.422Z,27.11
2022-08-09T14:39:48.799Z,27.13
2022-08-09T14:44:59.929Z,27.13
2022-08-09T14:50:02.711Z,27.17
2022-08-09T14:55:09.780Z,27.17
2022-08-09T15:00:16.989Z,27.21
2022-08-09T15:05:24.223Z,27.23
2022-08-09T15:10:31.954Z,27.24
2022-08-09T15:15:38.911Z,27.25
2022-08-09T15:22:00.667Z,27.31
2022-08-09T15:25:53.090Z,27.37
2022-08-09T15:31:09.931Z,27.37
2022-08-09T15:36:07.558Z,27.35
2022-08-09T15:41:22.288Z,27.39
2022-08-09T15:46:32.993Z,27.42
2022-08-09T15:51:30.170Z,27.43
2022-08-09T15:56:36.523Z,27.47
2022-08-09T16:01:43.746Z,27.49
2022-08-09T16:06:51.044Z,27.54
2022-08-09T16:11:58.739Z,27.59
2022-08-09T16:17:05.640Z,27.63
2022-08-09T16:22:15.659Z,27.63
2022-08-09T16:27:20.104Z,27.61
2022-08-09T16:32:34.271Z,27.64
2022-08-09T16:37:53.141Z,27.65
2022-08-09T16:42:45.393Z,27.67
2022-08-09T16:48:41.092Z,27.65
2022-08-09T16:52:56.870Z,27.65
2022-08-09T16:58:10.286Z,27.66
2022-08-09T17:03:21.142Z,27.67
2022-08-09T17:08:45.940Z,27.67
2022-08-09T17:13:25.718Z,27.67
2022-08-09T17:18:32.934Z,27.71
2022-08-09T17:24:28.329Z,27.70
2022-08-09T17:28:47.618Z,27.72
2022-08-09T17:33:54.850Z,27.76
2022-08-09T17:39:02.109Z,27.73
2022-08-09T17:44:42.044Z,27.82
2022-08-09T17:49:18.703Z,27.74
2022-08-09T17:54:25.188Z,27.67
2022-08-09T17:59:38.054Z,27.61
2022-08-09T18:04:39.873Z,27.56
2022-08-09T18:09:46.702Z,27.55
2022-08-09T18:14:56.579Z,27.54
2022-08-09T18:20:54.498Z,27.53
2022-08-09T18:25:08.408Z,27.54
2022-08-09T18:30:34.962Z,27.47
2022-08-09T18:36:00.111Z,27.44
2022-08-09T18:40:30.737Z,27.45
2022-08-09T18:46:47.374Z,27.41
2022-08-09T18:50:45.836Z,27.40
2022-08-09T18:55:57.072Z,27.30
2022-08-09T19:01:00.803Z,27.23
2022-08-09T19:06:14.655Z,27.24
2022-08-09T19:11:15.043Z,27.24
2022-08-09T19:16:22.356Z,27.26
2022-08-09T19:21:52.253Z,27.28
2022-08-09T19:26:36.843Z,27.30
2022-08-09T19:31:46.016Z,27.30
2022-08-09T19:36:51.260Z,27.23
2022-08-09T19:41:58.558Z,27.23
2022-08-09T19:47:05.874Z,27.20
2022-08-09T19:52:14.139Z,27.12
2022-08-09T19:57:25.486Z,27.06
2022-08-09T20:04:07.249Z,27.02
2022-08-09T20:07:59.445Z,27.04
2022-08-09T20:12:45.712Z,27.08
2022-08-09T20:17:54.531Z,27.01
2022-08-09T20:22:57.682Z,26.95
2022-08-09T20:28:04.909Z,26.95
2022-08-09T20:33:12.155Z,26.95
2022-08-09T20:38:33.961Z,27.13
2022-08-09T20:43:26.620Z,27.12
2022-08-09T20:48:33.803Z,27.08
2022-08-09T20:53:40.970Z,27.00
2022-08-09T20:58:48.173Z,26.89
2022-08-09T21:05:49.678Z,26.81
2022-08-09T21:09:02.574Z,26.78
2022-08-09T21:14:09.848Z,26.78
2022-08-09T21:20:17.248Z,26.70
2022-08-09T21:24:28.766Z,26.62
2022-08-09T21:29:48.545Z,26.55
2022-08-09T21:34:38.764Z,26.50
2022-08-09T21:39:49.796Z,26.53
2022-08-09T21:44:53.159Z,26.51
2022-08-09T21:50:00.294Z,26.51
2022-08-09T21:55:07.747Z,26.46
2022-08-09T22:00:14.948Z,26.51
2022-08-09T22:05:23.247Z,26.55
2022-08-09T22:10:29.480Z,26.60
2022-08-09T22:15:37.119Z,26.61
2022-08-09T22:20:43.979Z,26.62
2022-08-09T22:26:05.801Z,26.63
2022-08-09T22:30:58.557Z,26.60
2022-08-09T22:36:05.796Z,26.60
2022-08-09T22:41:13.149Z,26.58
2022-08-09T22:48:11.470Z,26.57
2022-08-09T22:51:27.450Z,26.58
2022-08-09T22:56:34.799Z,26.55
2022-08-09T23:01:41.974Z,26.58
2022-08-09T23:06:49.170Z,26.57
2022-08-09T23:11:56.425Z,26.54
2022-08-09T23:17:03.744Z,26.51
2022-08-09T23:22:10.959Z,26.51
2022-08-09T23:27:18.148Z,26.46
2022-08-09T23:32:25.367Z,26.48
2022-08-09T23:37:32.712Z,26.43
2022-08-09T23:42:40.698Z,26.42
2022-08-09T23:47:47.026Z,26.38
2022-08-09T23:52:54.277Z,26.25
2022-08-09T23:58:10.520Z,26.16
